»·PEaware :: N326CM KVNY-KSNA

N326CM :: KVNY-KSNA

FLIGHT INFORMATION

Flight Status: Arrived
Operator: Privately registered:
United States
More flights under this callsign
Pilot: Nigam P. (15980)
Aircraft: CESSNA 172 SKYHAWK
(C172)
More flights by this aircraft type
Origin: KVNY Van Nuys
United States
Destination: KSNA John Wayne-Orange Co
United States
More flights between these airports :: More routes between these airports
Route: +
File this flight plan on PilotEdge
Remarks: CAT10 Passing
Altitude:
(Current/Filed)
0ft
Speed:
(Current/Filed)
0kts
Departed: 28-Dec-17 08:08 PM
Arrived: 28-Dec-17 10:01 PM
Distance/Time
Traveled:
44nm/1:53
Distance/Time
To Go:
Arrived

Flight Plot

Page will automatically refresh every two minutes.


Map Options




Map Legend


Flown Route
Filed Route
Departure Airport
Arrival Airport
Navaid (VOR, NDB)
Fix

Horizontal Profiles

Position Reports

Time Latitude Longitude Heading Altitude Ground
Speed
28-Dec-17 20:02 34.205942 -118.493513 342 805ft 0kts
28-Dec-17 20:03 34.205942 -118.493514 342 805ft 0kts
28-Dec-17 20:04 34.206487 -118.492702 87 805ft 1kts
28-Dec-17 20:05 34.206918 -118.491262 355 805ft 8kts
28-Dec-17 20:06 34.209841 -118.491522 355 805ft 12kts
28-Dec-17 20:07 34.213568 -118.491822 355 805ft 14kts
28-Dec-17 20:08 34.217737 -118.492164 355 805ft 11kts
28-Dec-17 20:09 34.218027 -118.491744 81 805ft 0kts
28-Dec-17 20:10 34.218027 -118.491742 81 805ft 0kts
28-Dec-17 20:11 34.218027 -118.491740 81 805ft 0kts
28-Dec-17 20:12 34.218028 -118.491738 81 805ft 0kts
28-Dec-17 20:13 34.217473 -118.491087 172 805ft 12kts
28-Dec-17 20:14 34.201220 -118.490164 184 1204ft 78kts
28-Dec-17 20:15 34.180929 -118.498644 210 1995ft 76kts
28-Dec-17 20:16 34.165820 -118.516185 237 2735ft 75kts
28-Dec-17 20:17 34.150350 -118.529416 187 3406ft 73kts
28-Dec-17 20:18 34.152046 -118.535429 85 3912ft 78kts
28-Dec-17 20:19 34.149079 -118.546127 356 4480ft 68kts
28-Dec-17 20:20 34.142617 -118.546315 234 4823ft 93kts
28-Dec-17 20:21 34.139475 -118.548539 226 5259ft 93kts
28-Dec-17 20:22 34.150614 -118.557446 47 5826ft 69kts
28-Dec-17 20:28 33.802644 -118.344115 218 106ft 0kts
28-Dec-17 20:29 33.802644 -118.344115 218 106ft 0kts
28-Dec-17 20:30 33.802644 -118.344115 218 106ft 0kts
28-Dec-17 20:31 33.802644 -118.344115 218 106ft 0kts
28-Dec-17 20:32 33.802644 -118.344115 218 106ft 0kts
28-Dec-17 20:33 33.802644 -118.344115 218 106ft 0kts
28-Dec-17 20:34 33.802644 -118.344115 218 106ft 0kts
28-Dec-17 20:35 33.802644 -118.344115 218 106ft 0kts
28-Dec-17 20:36 33.802644 -118.344115 218 106ft 0kts
28-Dec-17 20:37 33.802644 -118.344115 218 106ft 0kts
28-Dec-17 20:38 33.802644 -118.344115 218 106ft 0kts
28-Dec-17 20:39 33.802644 -118.344115 218 106ft 0kts
28-Dec-17 20:40 33.802644 -118.344115 218 106ft 0kts
28-Dec-17 20:41 33.802644 -118.344115 218 106ft 0kts
28-Dec-17 20:42 33.802605 -118.344139 193 106ft 1kts
28-Dec-17 20:43 33.803105 -118.342658 41 106ft 9kts
28-Dec-17 20:44 33.800352 -118.338246 132 106ft 19kts
28-Dec-17 20:45 33.798329 -118.334275 35 106ft 12kts
28-Dec-17 20:46 33.799272 -118.333362 36 106ft 0kts
28-Dec-17 20:47 33.799275 -118.333359 36 106ft 0kts
28-Dec-17 20:48 33.800942 -118.334924 308 106ft 48kts
28-Dec-17 20:49 33.818623 -118.350374 351 722ft 88kts
28-Dec-17 20:50 33.843027 -118.347959 351 1418ft 81kts
28-Dec-17 20:51 33.863379 -118.349969 352 2036ft 66kts
28-Dec-17 20:52 33.881495 -118.353120 349 2568ft 80kts
28-Dec-17 20:53 33.909376 -118.364682 334 2507ft 116kts
28-Dec-17 20:54 33.935450 -118.387960 320 2511ft 118kts
28-Dec-17 20:55 33.961405 -118.412513 324 2503ft 119kts
28-Dec-17 20:56 33.975885 -118.441837 245 2588ft 117kts
28-Dec-17 20:57 33.987574 -118.468332 357 2643ft 111kts
28-Dec-17 20:58 34.019795 -118.468485 18 2538ft 120kts
28-Dec-17 20:59 34.052288 -118.463132 356 2500ft 117kts
28-Dec-17 21:00 34.084794 -118.467813 353 2503ft 117kts
28-Dec-17 21:01 34.117377 -118.473253 353 2513ft 118kts
28-Dec-17 21:02 34.149129 -118.486000 330 2261ft 127kts
28-Dec-17 21:03 34.183863 -118.496872 350 1867ft 119kts
28-Dec-17 21:04 34.212847 -118.501343 355 1448ft 78kts
28-Dec-17 21:05 34.229871 -118.498444 88 1346ft 60kts
28-Dec-17 21:06 34.211889 -118.490563 175 806ft 62kts
28-Dec-17 21:07 34.208526 -118.490785 223 805ft 0kts
28-Dec-17 21:08 34.208520 -118.490792 223 805ft 1kts
28-Dec-17 21:09 34.206409 -118.491479 278 805ft 3kts
28-Dec-17 21:10 34.206014 -118.493320 268 805ft 4kts
28-Dec-17 21:11 34.206071 -118.493390 355 805ft 0kts
28-Dec-17 21:12 34.206073 -118.493390 355 805ft 0kts
28-Dec-17 21:13 34.206075 -118.493390 355 805ft 0kts
28-Dec-17 21:14 34.206077 -118.493391 355 805ft 0kts
28-Dec-17 21:15 34.206078 -118.493391 355 805ft 0kts
28-Dec-17 21:16 34.206080 -118.493391 355 805ft 0kts
28-Dec-17 21:17 34.206082 -118.493391 355 805ft 0kts
28-Dec-17 21:18 34.206083 -118.493391 355 805ft 0kts
28-Dec-17 21:19 34.206085 -118.493391 355 805ft 0kts
28-Dec-17 21:20 34.206087 -118.493391 355 805ft 0kts
28-Dec-17 21:21 34.206088 -118.493392 355 805ft 0kts
28-Dec-17 21:22 34.206090 -118.493392 355 805ft 0kts
28-Dec-17 21:23 34.206175 -118.493404 357 805ft 4kts
28-Dec-17 21:24 34.207409 -118.491294 355 805ft 12kts
28-Dec-17 21:25 34.211018 -118.491597 356 805ft 15kts
28-Dec-17 21:26 34.215596 -118.491980 355 805ft 19kts
28-Dec-17 21:27 34.218029 -118.491733 86 805ft 0kts
28-Dec-17 21:28 34.218029 -118.491729 86 805ft 0kts
28-Dec-17 21:29 34.218029 -118.491726 86 805ft 0kts
28-Dec-17 21:30 34.218030 -118.491722 86 805ft 0kts
28-Dec-17 21:31 34.215996 -118.490966 175 805ft 49kts
28-Dec-17 21:32 34.195647 -118.490026 206 1389ft 73kts
28-Dec-17 21:33 34.180769 -118.511654 231 2051ft 90kts
28-Dec-17 21:34 34.165002 -118.534746 230 2774ft 88kts
28-Dec-17 21:35 34.146270 -118.558976 227 3283ft 90kts
28-Dec-17 21:36 34.147507 -118.575838 52 3965ft 73kts
28-Dec-17 21:37 34.139598 -118.579471 306 4546ft 76kts
28-Dec-17 21:38 34.138282 -118.572566 212 5029ft 83kts
28-Dec-17 21:39 34.137772 -118.588669 82 5414ft 83kts
28-Dec-17 21:40 34.120263 -118.564023 116 5562ft 103kts
28-Dec-17 21:41 34.114536 -118.531627 101 5689ft 114kts
28-Dec-17 21:42 34.088601 -118.506956 149 5476ft 121kts
28-Dec-17 21:43 34.058331 -118.491918 158 5496ft 115kts
28-Dec-17 21:44 34.028099 -118.478511 155 5501ft 116kts
28-Dec-17 21:45 33.998160 -118.463618 155 5501ft 116kts
28-Dec-17 21:46 33.968213 -118.449060 155 5502ft 116kts
28-Dec-17 21:47 33.938265 -118.434495 155 5503ft 116kts
28-Dec-17 21:48 33.909601 -118.417396 135 5505ft 114kts
28-Dec-17 21:49 33.891545 -118.387025 122 5502ft 113kts
28-Dec-17 21:50 33.867933 -118.361353 135 5499ft 114kts
28-Dec-17 21:51 33.844196 -118.335752 135 5497ft 114kts
28-Dec-17 21:52 33.820568 -118.310200 135 5498ft 114kts
28-Dec-17 21:53 33.796845 -118.284571 135 5497ft 114kts
28-Dec-17 21:54 33.773203 -118.259047 135 5497ft 114kts
28-Dec-17 21:55 33.748282 -118.232042 135 5127ft 129kts
28-Dec-17 21:56 33.724074 -118.196453 116 4548ft 139kts
28-Dec-17 21:57 33.708529 -118.155849 111 3942ft 132kts
28-Dec-17 21:58 33.694414 -118.115894 111 3496ft 124kts
28-Dec-17 21:59 33.681536 -118.079185 111 3500ft 116kts
28-Dec-17 22:00 33.668984 -118.043497 111 3501ft 116kts
28-Dec-17 22:01 33.656592 -118.007623 103 3499ft 115kts
28-Dec-17 22:02 33.657784 -117.966362 80 2953ft 132kts
28-Dec-17 22:03 33.663638 -117.922169 79 1767ft 134kts
28-Dec-17 22:04 33.673990 -117.886454 43 618ft 90kts
28-Dec-17 22:05 33.690735 -117.869966 38 317ft 71kts
28-Dec-17 22:06 33.681602 -117.865054 207 98ft 69kts
28-Dec-17 22:07 33.675695 -117.869588 295 59ft 0kts
28-Dec-17 22:08 33.675802 -117.870451 205 59ft 11kts
28-Dec-17 22:09 33.674453 -117.871788 111 59ft 0kts
28-Dec-17 22:10 33.674452 -117.871788 111 59ft 0kts
28-Dec-17 22:11 33.674452 -117.871787 111 59ft 0kts
28-Dec-17 22:12 33.674452 -117.871787 111 59ft 0kts
28-Dec-17 22:13 33.674452 -117.871786 111 59ft 0kts
28-Dec-17 22:14 33.674452 -117.871786 111 59ft 0kts
28-Dec-17 22:15 33.674452 -117.871786 111 59ft 0kts
28-Dec-17 22:16 33.674452 -117.871785 111 59ft 0kts
28-Dec-17 22:17 33.674452 -117.871785 111 59ft 0kts
28-Dec-17 22:18 33.674451 -117.871785 111 59ft 0kts
28-Dec-17 22:19 33.674451 -117.871784 111 59ft 0kts
28-Dec-17 22:20 33.674451 -117.871784 111 59ft 0kts
28-Dec-17 22:21 33.674451 -117.871783 111 59ft 0kts
28-Dec-17 22:22 33.674451 -117.871783 111 59ft 0kts

Navigation Log

Ident Type
1. KVNY Airport
2. KSNA Airport